createdAt,value
2018-09-04T00:00:53.793Z,45.25
2018-09-04T00:01:58.158Z,53.83
2018-09-04T00:03:01.824Z,52.95
2018-09-04T00:04:05.832Z,50.92
2018-09-04T00:05:09.753Z,52.70
2018-09-04T00:06:13.577Z,52.48
2018-09-04T00:07:20.322Z,50.58
2018-09-04T00:08:24.006Z,49.42
2018-09-04T00:09:28.476Z,54.90
2018-09-04T00:10:32.899Z,53.48
2018-09-04T00:11:37.208Z,53.42
2018-09-04T00:12:40.699Z,56.55
2018-09-04T00:13:44.298Z,53.92
2018-09-04T00:14:48.817Z,56.45
2018-09-04T00:15:52.899Z,50.70
2018-09-04T00:16:57.397Z,52.95
2018-09-04T00:18:01.722Z,53.38
2018-09-04T00:19:05.337Z,51.92
2018-09-04T00:20:08.942Z,49.00
2018-09-04T00:21:12.754Z,55.78
2018-09-04T00:22:16.289Z,50.80
2018-09-04T00:23:19.939Z,48.60
2018-09-04T00:24:23.948Z,47.62
2018-09-04T00:25:27.588Z,48.15
2018-09-04T00:26:31.264Z,47.00
2018-09-04T00:27:34.770Z,49.58
2018-09-04T00:28:38.257Z,48.90
2018-09-04T00:29:42.587Z,50.43
2018-09-04T00:30:46.225Z,47.05
2018-09-04T00:31:49.924Z,46.08
2018-09-04T00:32:53.452Z,49.25
2018-09-04T00:33:56.993Z,47.15
2018-09-04T00:35:00.502Z,47.40
2018-09-04T00:36:04.089Z,51.53
2018-09-04T00:37:07.611Z,51.25
2018-09-04T00:38:11.214Z,44.15
2018-09-04T00:39:14.665Z,49.13
2018-09-04T00:40:18.205Z,43.65
2018-09-04T00:41:22.624Z,51.60
2018-09-04T00:42:26.116Z,47.38
2018-09-04T00:43:29.974Z,46.48
2018-09-04T00:44:33.490Z,44.58
2018-09-04T00:45:37.034Z,44.93
2018-09-04T00:46:40.771Z,47.38
2018-09-04T00:47:44.315Z,40.65
2018-09-04T00:48:47.850Z,46.10
2018-09-04T00:49:51.412Z,40.30
2018-09-04T00:50:55.902Z,39.40
2018-09-04T00:52:00.070Z,41.10
2018-09-04T00:53:03.607Z,39.45
2018-09-04T00:54:07.889Z,39.60
2018-09-04T00:55:13.325Z,41.55
2018-09-04T00:56:16.900Z,41.02
2018-09-04T00:57:20.424Z,40.23
2018-09-04T00:58:24.752Z,39.83
2018-09-04T00:59:29.720Z,40.52
2018-09-04T01:00:33.234Z,41.55
2018-09-04T01:01:37.549Z,42.70
2018-09-04T01:02:42.160Z,44.35
2018-09-04T01:03:46.289Z,41.55
2018-09-04T01:04:50.480Z,45.55
2018-09-04T01:05:54.404Z,46.40
2018-09-04T01:06:58.570Z,45.25
2018-09-04T01:08:03.065Z,45.52
2018-09-04T01:09:07.701Z,49.18
2018-09-04T01:10:11.398Z,46.60
2018-09-04T01:11:14.960Z,45.12
2018-09-04T01:12:18.515Z,42.15
2018-09-04T01:13:22.123Z,40.85
2018-09-04T01:14:25.630Z,38.83
2018-09-04T01:15:29.238Z,41.42
2018-09-04T01:16:33.069Z,38.50
2018-09-04T01:17:36.565Z,40.58
2018-09-04T01:18:40.348Z,38.88
2018-09-04T01:19:44.449Z,39.55
2018-09-04T01:20:47.970Z,39.05
2018-09-04T01:21:52.250Z,42.60
2018-09-04T01:22:55.882Z,42.00
2018-09-04T01:23:59.372Z,39.67
2018-09-04T01:25:03.334Z,44.18
2018-09-04T01:26:08.396Z,38.70
2018-09-04T01:27:12.587Z,44.60
2018-09-04T01:28:16.109Z,44.65
2018-09-04T01:29:19.652Z,46.75
2018-09-04T01:30:24.363Z,48.63
2018-09-04T01:31:29.215Z,45.25
2018-09-04T01:32:32.741Z,44.75
2018-09-04T01:33:36.277Z,47.58
2018-09-04T01:34:40.872Z,42.78
2018-09-04T01:35:44.433Z,41.92
2018-09-04T01:36:48.220Z,45.05
2018-09-04T01:37:52.561Z,47.70
2018-09-04T01:38:56.189Z,43.75
2018-09-04T01:40:00.001Z,50.90
2018-09-04T01:41:03.630Z,46.28
2018-09-04T01:42:07.307Z,42.75
2018-09-04T01:43:11.111Z,43.13
2018-09-04T01:44:15.487Z,45.08
2018-09-04T01:45:20.357Z,41.23
2018-09-04T01:46:24.338Z,43.13
2018-09-04T01:47:30.192Z,44.30
2018-09-04T01:48:33.824Z,43.38
2018-09-04T01:49:38.045Z,45.03
2018-09-04T01:50:42.195Z,42.43
2018-09-04T01:51:45.716Z,44.67
2018-09-04T01:52:49.234Z,43.05
2018-09-04T01:53:52.733Z,40.95
2018-09-04T01:54:57.326Z,40.88
2018-09-04T01:56:02.719Z,42.70
2018-09-04T01:57:06.832Z,43.25
2018-09-04T01:58:11.062Z,44.55
2018-09-04T01:59:15.728Z,43.52
2018-09-04T02:00:20.392Z,46.20
2018-09-04T02:01:23.964Z,44.77
2018-09-04T02:02:27.587Z,44.65
2018-09-04T02:03:31.669Z,44.45
2018-09-04T02:04:35.162Z,45.85
2018-09-04T02:05:39.991Z,43.60
2018-09-04T02:06:44.272Z,44.33
2018-09-04T02:07:48.391Z,41.13
2018-09-04T02:08:52.416Z,45.00
2018-09-04T02:11:28.067Z,40.67
2018-09-04T02:12:33.028Z,44.42
2018-09-04T02:13:37.719Z,42.40
2018-09-04T02:14:41.218Z,48.58
2018-09-04T02:15:44.785Z,43.05
2018-09-04T02:16:48.554Z,45.03
2018-09-04T02:17:52.044Z,43.83
2018-09-04T02:18:56.466Z,45.63
2018-09-04T02:20:00.329Z,46.95
2018-09-04T02:21:03.780Z,43.73
2018-09-04T02:22:07.474Z,44.08
2018-09-04T02:23:11.040Z,42.03
2018-09-04T02:24:14.675Z,47.45
2018-09-04T02:25:18.182Z,46.13
2018-09-04T02:26:21.759Z,43.42
2018-09-04T02:27:26.094Z,50.70
2018-09-04T02:28:29.924Z,46.37
2018-09-04T02:29:33.705Z,47.17
2018-09-04T02:30:37.292Z,49.70
2018-09-04T02:31:40.792Z,42.88
2018-09-04T02:32:44.283Z,33.50
2018-09-04T02:33:48.558Z,41.02
2018-09-04T02:34:52.747Z,40.85
2018-09-04T02:35:56.920Z,44.83
2018-09-04T02:37:01.131Z,44.00
2018-09-04T02:38:05.692Z,42.53
2018-09-04T02:39:10.838Z,38.98
2018-09-04T02:40:15.172Z,43.70
2018-09-04T02:41:19.069Z,43.30
2018-09-04T02:42:22.614Z,42.05
2018-09-04T02:43:26.229Z,43.63
2018-09-04T02:44:30.383Z,45.05
2018-09-04T02:45:33.951Z,44.50
2018-09-04T02:46:37.988Z,43.15
2018-09-04T02:47:42.289Z,50.55
2018-09-04T02:48:47.000Z,45.25
2018-09-04T02:49:51.222Z,48.52
2018-09-04T02:50:55.272Z,45.45
2018-09-04T02:51:58.804Z,48.85
2018-09-04T02:53:02.437Z,49.77
2018-09-04T02:54:06.708Z,46.35
2018-09-04T02:55:10.943Z,44.03
2018-09-04T02:56:15.117Z,45.28
2018-09-04T02:57:18.921Z,46.83
2018-09-04T02:58:23.366Z,49.63
2018-09-04T02:59:26.975Z,43.52
2018-09-04T03:00:31.705Z,48.50
2018-09-04T03:01:35.814Z,47.03
2018-09-04T03:02:40.816Z,45.58
2018-09-04T03:03:44.432Z,47.38
2018-09-04T03:04:50.434Z,51.77
2018-09-04T03:05:54.109Z,51.08
2018-09-04T03:06:57.756Z,49.05
2018-09-04T03:08:03.018Z,50.50
2018-09-04T03:09:08.272Z,54.65
2018-09-04T03:10:11.870Z,50.60
2018-09-04T03:11:16.310Z,55.60
2018-09-04T03:12:19.812Z,51.45
2018-09-04T03:13:23.347Z,51.15
2018-09-04T03:14:27.861Z,51.95
2018-09-04T03:15:32.005Z,52.45
2018-09-04T03:16:35.513Z,53.63
2018-09-04T03:17:40.360Z,59.30
2018-09-04T03:18:43.883Z,52.48
2018-09-04T03:19:47.553Z,52.03
2018-09-04T03:20:51.097Z,52.20
2018-09-04T03:21:54.710Z,58.35
2018-09-04T03:22:58.219Z,56.30
2018-09-04T03:24:02.651Z,60.67
2018-09-04T03:25:06.247Z,61.42
2018-09-04T03:26:09.745Z,60.10
2018-09-04T03:27:13.360Z,58.48
2018-09-04T03:28:16.949Z,61.33
2018-09-04T03:29:20.991Z,62.65
2018-09-04T03:30:24.544Z,55.95
2018-09-04T03:31:28.070Z,58.08
2018-09-04T03:32:32.106Z,55.95
2018-09-04T03:33:36.976Z,54.88
2018-09-04T03:34:40.459Z,58.35
2018-09-04T03:35:44.005Z,59.27
2018-09-04T03:36:47.778Z,55.50
2018-09-04T03:37:51.246Z,57.13
2018-09-04T03:38:54.850Z,55.67
2018-09-04T03:39:58.930Z,55.40
2018-09-04T03:41:02.738Z,53.08
2018-09-04T03:42:06.321Z,57.48
2018-09-04T03:43:09.922Z,54.77
2018-09-04T03:44:13.951Z,58.80
2018-09-04T03:45:18.219Z,54.13
2018-09-04T03:46:22.054Z,58.95
2018-09-04T03:47:26.413Z,58.63
2018-09-04T03:48:29.980Z,58.23
2018-09-04T03:49:33.776Z,54.35
2018-09-04T03:50:39.390Z,56.45
2018-09-04T03:51:43.333Z,53.00
2018-09-04T03:52:47.709Z,56.02
2018-09-04T03:53:52.498Z,59.53
2018-09-04T03:54:56.145Z,55.73
2018-09-04T03:56:00.567Z,59.30
2018-09-04T03:57:05.429Z,55.78
2018-09-04T03:58:11.270Z,58.73
2018-09-04T03:59:15.032Z,61.02
2018-09-04T04:00:18.558Z,54.35
2018-09-04T04:01:22.893Z,52.65
2018-09-04T04:02:27.323Z,52.43
2018-09-04T04:03:30.995Z,54.60
2018-09-04T04:04:34.590Z,58.05
2018-09-04T04:05:40.059Z,57.78
2018-09-04T04:06:43.754Z,52.50
2018-09-04T04:07:49.305Z,60.50
2018-09-04T04:08:53.046Z,57.90
2018-09-04T04:09:56.660Z,60.95
2018-09-04T04:11:00.261Z,60.83
2018-09-04T04:12:05.122Z,63.33
2018-09-04T04:13:08.974Z,58.08
2018-09-04T04:14:13.143Z,54.13
2018-09-04T04:15:16.844Z,57.15
2018-09-04T04:16:21.110Z,61.48
2018-09-04T04:17:24.814Z,61.28
2018-09-04T04:18:28.717Z,63.95
2018-09-04T04:19:33.229Z,64.35
2018-09-04T04:20:37.235Z,64.97
2018-09-04T04:21:40.923Z,62.43
2018-09-04T04:22:45.132Z,61.48
2018-09-04T04:23:48.821Z,55.38
2018-09-04T04:24:52.452Z,63.35
2018-09-04T04:25:56.895Z,67.60
2018-09-04T04:27:00.480Z,71.60
2018-09-04T04:28:06.254Z,65.75
2018-09-04T04:29:10.420Z,64.58
2018-09-04T04:30:14.107Z,65.25
2018-09-04T04:31:17.885Z,72.08
2018-09-04T04:32:21.698Z,68.78
2018-09-04T04:33:25.224Z,66.10
2018-09-04T04:34:28.805Z,65.08
2018-09-04T04:35:32.623Z,64.17
2018-09-04T04:36:36.258Z,64.20
2018-09-04T04:37:40.577Z,64.47
2018-09-04T04:38:44.119Z,67.70
2018-09-04T04:39:47.799Z,68.45
2018-09-04T04:40:53.463Z,69.97
2018-09-04T04:41:57.827Z,71.30
2018-09-04T04:43:01.557Z,71.10
2018-09-04T04:44:05.630Z,78.90
2018-09-04T04:45:09.527Z,71.85
2018-09-04T04:46:13.325Z,79.00
2018-09-04T04:47:21.053Z,81.40
2018-09-04T04:48:24.647Z,83.03
2018-09-04T04:49:28.656Z,77.72
2018-09-04T04:50:32.257Z,81.70
2018-09-04T04:51:36.173Z,81.15
2018-09-04T04:52:39.953Z,91.65
2018-09-04T04:53:43.654Z,84.47
2018-09-04T04:54:47.161Z,83.60
2018-09-04T04:55:50.628Z,81.70
2018-09-04T04:56:54.144Z,85.95
2018-09-04T04:57:57.669Z,85.53
2018-09-04T04:59:01.533Z,80.30
2018-09-04T05:00:06.115Z,84.90
2018-09-04T05:01:10.041Z,88.47
2018-09-04T05:02:14.313Z,84.03
2018-09-04T05:03:18.063Z,82.05
2018-09-04T05:04:22.143Z,83.15
2018-09-04T05:05:25.782Z,91.57
2018-09-04T05:06:29.605Z,92.88
2018-09-04T05:07:33.908Z,90.83
2018-09-04T05:08:37.397Z,92.15
2018-09-04T05:09:41.525Z,84.67
2018-09-04T05:10:45.342Z,84.58
2018-09-04T05:11:48.897Z,92.33
2018-09-04T05:12:52.497Z,81.10
2018-09-04T05:13:56.267Z,84.95
2018-09-04T05:15:00.150Z,90.10
2018-09-04T05:16:03.710Z,85.38
2018-09-04T05:17:07.957Z,97.17
2018-09-04T05:18:11.565Z,87.47
2018-09-04T05:19:15.156Z,86.55
2018-09-04T05:20:23.014Z,86.82
2018-09-04T05:21:26.785Z,89.35
2018-09-04T05:22:31.138Z,80.97
2018-09-04T05:23:34.947Z,78.30
2018-09-04T05:24:38.572Z,73.42
2018-09-04T05:25:42.152Z,70.57
2018-09-04T05:26:45.653Z,73.10
2018-09-04T05:27:49.219Z,78.25
2018-09-04T05:28:52.775Z,66.10
2018-09-04T05:29:56.289Z,70.17
2018-09-04T05:30:59.929Z,65.90
2018-09-04T05:33:06.674Z,64.92
2018-09-04T05:34:10.413Z,67.22
2018-09-04T05:35:15.250Z,67.75
2018-09-04T05:36:18.853Z,60.88
2018-09-04T05:37:22.475Z,58.90
2018-09-04T05:38:26.051Z,58.63
2018-09-04T05:39:30.288Z,59.90
2018-09-04T05:40:33.976Z,59.73
2018-09-04T05:41:38.077Z,54.27
2018-09-04T05:42:47.594Z,56.25
2018-09-04T05:43:54.730Z,52.62
2018-09-04T05:44:58.298Z,46.13
2018-09-04T05:46:05.310Z,49.95
2018-09-04T05:47:08.959Z,50.25
2018-09-04T05:48:14.769Z,50.92
2018-09-04T05:49:22.591Z,48.23
2018-09-04T05:50:26.190Z,51.83
2018-09-04T05:51:29.804Z,52.00
2018-09-04T05:52:34.051Z,48.45
2018-09-04T05:53:37.751Z,51.40
2018-09-04T05:54:41.398Z,47.17
2018-09-04T05:55:45.045Z,50.75
2018-09-04T05:56:49.480Z,44.40
2018-09-04T05:57:53.615Z,49.83
2018-09-04T05:58:57.155Z,54.08
2018-09-04T06:00:01.402Z,56.15
2018-09-04T06:01:05.856Z,54.75
2018-09-04T06:02:09.840Z,53.90
2018-09-04T06:03:13.361Z,50.85
2018-09-04T06:04:17.711Z,48.63
2018-09-04T06:05:22.600Z,53.23
2018-09-04T06:06:26.120Z,48.75
2018-09-04T06:07:30.542Z,54.45
2018-09-04T06:08:34.793Z,52.85
2018-09-04T06:09:39.330Z,47.80
2018-09-04T06:10:43.005Z,51.75
2018-09-04T06:11:46.538Z,46.42
2018-09-04T06:12:50.549Z,50.58
2018-09-04T06:13:54.482Z,54.40
2018-09-04T06:14:58.683Z,48.48
2018-09-04T06:16:02.240Z,49.67
2018-09-04T06:17:05.915Z,53.13
2018-09-04T06:18:09.917Z,49.93
2018-09-04T06:19:13.599Z,51.60
2018-09-04T06:20:17.278Z,44.25
2018-09-04T06:21:20.898Z,45.67
2018-09-04T06:22:24.561Z,49.05
2018-09-04T06:23:28.039Z,47.43
2018-09-04T06:24:32.968Z,30.85
2018-09-04T06:25:36.567Z,42.30
2018-09-04T06:26:40.066Z,36.98
2018-09-04T06:27:43.662Z,36.13
2018-09-04T06:28:47.210Z,38.23
2018-09-04T06:29:50.645Z,48.92
2018-09-04T06:30:54.231Z,51.73
2018-09-04T06:31:57.966Z,49.73
2018-09-04T06:33:01.692Z,36.35
2018-09-04T06:34:05.584Z,33.45
2018-09-04T06:35:09.187Z,44.77
2018-09-04T06:36:13.673Z,50.38
2018-09-04T06:37:17.745Z,45.23
2018-09-04T06:38:21.259Z,48.70
2018-09-04T06:39:24.884Z,49.63
2018-09-04T06:40:29.329Z,46.92
2018-09-04T06:41:32.845Z,50.03
2018-09-04T06:42:36.681Z,40.28
2018-09-04T06:43:41.066Z,37.58
2018-09-04T06:44:44.794Z,39.15
2018-09-04T06:45:48.254Z,47.17
2018-09-04T06:46:51.937Z,51.13
2018-09-04T06:47:55.692Z,45.60
2018-09-04T06:48:59.309Z,45.75
2018-09-04T06:50:03.198Z,46.08
2018-09-04T06:51:06.807Z,50.38
2018-09-04T06:52:11.836Z,41.65
2018-09-04T06:53:15.761Z,53.40
2018-09-04T06:54:19.444Z,49.15
2018-09-04T06:55:23.024Z,46.15
2018-09-04T06:56:26.517Z,49.05
2018-09-04T06:57:30.013Z,47.03
2018-09-04T06:58:33.644Z,46.40
2018-09-04T06:59:37.219Z,42.25
2018-09-04T07:00:40.982Z,41.65
2018-09-04T07:01:44.570Z,47.43
2018-09-04T07:02:48.072Z,46.48
2018-09-04T07:03:51.778Z,45.78
2018-09-04T07:04:55.349Z,50.85
2018-09-04T07:05:58.890Z,41.90
2018-09-04T07:07:02.507Z,45.67
2018-09-04T07:08:06.162Z,45.28
2018-09-04T07:09:11.971Z,50.35
2018-09-04T07:10:15.454Z,42.08
2018-09-04T07:11:18.995Z,49.08
2018-09-04T07:12:22.517Z,45.25
2018-09-04T07:13:26.021Z,42.25
2018-09-04T07:14:29.639Z,44.23
2018-09-04T07:15:33.357Z,44.53
2018-09-04T07:16:36.920Z,40.55
2018-09-04T07:17:40.638Z,48.38
2018-09-04T07:18:44.583Z,42.15
2018-09-04T07:19:48.063Z,46.85
2018-09-04T07:20:51.625Z,46.60
2018-09-04T07:21:55.146Z,48.05
2018-09-04T07:22:58.627Z,44.60
2018-09-04T07:24:02.262Z,51.50
2018-09-04T07:25:06.318Z,45.70
2018-09-04T07:26:09.997Z,52.53
2018-09-04T07:27:13.539Z,45.10
2018-09-04T07:28:17.026Z,44.33
2018-09-04T07:29:20.533Z,46.70
2018-09-04T07:30:24.039Z,45.55
2018-09-04T07:31:27.770Z,45.45
2018-09-04T07:32:31.237Z,37.73
2018-09-04T07:33:34.914Z,45.80
2018-09-04T07:34:43.470Z,48.78
2018-09-04T07:35:47.604Z,39.18
2018-09-04T07:36:51.509Z,44.98
2018-09-04T07:37:55.217Z,48.30
2018-09-04T07:38:58.961Z,40.63
2018-09-04T07:40:02.588Z,45.98
2018-09-04T07:41:06.235Z,45.52
2018-09-04T07:42:10.634Z,47.58
2018-09-04T07:43:15.229Z,47.27
2018-09-04T07:44:18.837Z,41.02
2018-09-04T07:45:22.333Z,49.20
2018-09-04T07:46:25.869Z,49.65
2018-09-04T07:47:29.518Z,47.35
2018-09-04T07:48:33.152Z,48.90
2018-09-04T07:49:36.833Z,47.27
2018-09-04T07:50:40.622Z,44.05
2018-09-04T07:51:44.232Z,45.30
2018-09-04T07:52:47.901Z,46.13
2018-09-04T07:53:51.560Z,47.13
2018-09-04T07:54:55.060Z,42.65
2018-09-04T07:55:58.606Z,50.78
2018-09-04T07:57:03.494Z,44.67
2018-09-04T07:58:07.091Z,44.18
2018-09-04T07:59:10.817Z,41.37
2018-09-04T08:00:14.766Z,39.25
2018-09-04T08:01:18.471Z,42.17
2018-09-04T08:02:22.009Z,38.23
2018-09-04T08:03:26.148Z,45.80
2018-09-04T08:04:29.721Z,47.35
2018-09-04T08:05:33.507Z,38.83
2018-09-04T08:06:37.362Z,46.85
2018-09-04T08:07:40.989Z,38.58
2018-09-04T08:08:44.605Z,41.23
2018-09-04T08:09:49.063Z,38.92
2018-09-04T08:10:52.848Z,41.73
2018-09-04T08:11:56.494Z,44.42
2018-09-04T08:13:00.254Z,43.17
2018-09-04T08:14:03.854Z,43.70
2018-09-04T08:15:07.765Z,39.10
2018-09-04T08:16:11.548Z,37.13
2018-09-04T08:17:15.074Z,40.28
2018-09-04T08:18:18.774Z,42.78
2018-09-04T08:19:22.344Z,34.33
2018-09-04T08:20:26.452Z,39.18
2018-09-04T08:21:30.168Z,43.08
2018-09-04T08:22:33.705Z,41.25
2018-09-04T08:23:38.078Z,42.43
2018-09-04T08:24:41.595Z,41.83
2018-09-04T08:25:45.892Z,43.42
2018-09-04T08:26:50.263Z,38.45
2018-09-04T08:27:54.137Z,36.68
2018-09-04T08:28:57.845Z,33.40
2018-09-04T08:30:01.528Z,36.68
2018-09-04T08:31:05.234Z,35.68
2018-09-04T08:32:09.074Z,34.53
2018-09-04T08:33:13.203Z,34.90
2018-09-04T08:34:16.965Z,36.55
2018-09-04T08:35:20.680Z,35.58
2018-09-04T08:36:24.259Z,40.35
2018-09-04T08:37:28.520Z,33.45
2018-09-04T08:38:32.601Z,34.65
2018-09-04T08:39:36.264Z,38.63
2018-09-04T08:40:40.616Z,36.30
2018-09-04T08:41:44.171Z,35.92
2018-09-04T08:42:48.039Z,36.15
2018-09-04T08:43:51.754Z,35.38
2018-09-04T08:44:56.386Z,34.75
2018-09-04T08:46:00.561Z,33.20
2018-09-04T08:47:04.254Z,33.67
2018-09-04T08:48:13.310Z,39.42
2018-09-04T08:49:17.137Z,31.95
2018-09-04T08:50:20.688Z,31.87
2018-09-04T08:51:24.280Z,33.55
2018-09-04T08:52:28.469Z,36.17
2018-09-04T08:53:32.100Z,36.95
2018-09-04T08:54:35.738Z,41.23
2018-09-04T08:55:39.391Z,40.15
2018-09-04T08:56:43.270Z,41.13
2018-09-04T08:57:48.492Z,38.25
2018-09-04T08:58:52.133Z,32.58
2018-09-04T08:59:55.855Z,30.77
2018-09-04T09:01:02.237Z,31.68
2018-09-04T09:02:06.342Z,34.27
2018-09-04T09:03:09.997Z,34.05
2018-09-04T09:04:14.095Z,36.05
2018-09-04T09:05:17.649Z,40.28
2018-09-04T09:06:21.467Z,34.20
2018-09-04T09:07:24.969Z,32.10
2018-09-04T09:08:28.545Z,32.80
2018-09-04T09:09:32.292Z,30.85
2018-09-04T09:10:35.967Z,34.63
2018-09-04T09:11:40.169Z,33.23
2018-09-04T09:12:44.437Z,30.70
2018-09-04T09:13:47.939Z,35.08
2018-09-04T09:14:51.658Z,30.48
2018-09-04T09:15:55.209Z,33.28
2018-09-04T09:16:58.721Z,32.30
2018-09-04T09:18:02.265Z,32.95
2018-09-04T09:19:06.233Z,31.15
2018-09-04T09:20:09.983Z,31.73
2018-09-04T09:21:13.551Z,35.48
2018-09-04T09:22:17.254Z,38.05
2018-09-04T09:23:21.337Z,35.38
2018-09-04T09:24:25.304Z,38.75
2018-09-04T09:25:28.822Z,33.95
2018-09-04T09:26:32.603Z,35.43
2018-09-04T09:27:36.220Z,30.97
2018-09-04T09:28:39.730Z,32.48
2018-09-04T09:29:43.400Z,32.17
2018-09-04T09:30:47.043Z,32.78
2018-09-04T09:31:50.580Z,32.55
2018-09-04T09:32:54.167Z,32.67
2018-09-04T09:33:57.884Z,38.55
2018-09-04T09:35:01.768Z,36.15
2018-09-04T09:36:05.687Z,37.03
2018-09-04T09:37:09.495Z,39.00
2018-09-04T09:38:12.988Z,37.08
2018-09-04T09:39:16.469Z,36.77
2018-09-04T09:40:20.183Z,38.28
2018-09-04T09:41:24.403Z,36.85
2018-09-04T09:42:28.066Z,37.73
2018-09-04T09:43:31.865Z,37.30
2018-09-04T09:44:35.723Z,36.35
2018-09-04T09:45:40.322Z,29.70
2018-09-04T09:46:44.102Z,31.30
2018-09-04T09:47:48.399Z,32.63
2018-09-04T09:48:52.206Z,32.80
2018-09-04T09:49:56.075Z,30.85
2018-09-04T09:50:59.727Z,33.98
2018-09-04T09:52:03.705Z,33.98
2018-09-04T09:53:07.638Z,33.65
2018-09-04T09:54:11.851Z,37.83
2018-09-04T09:55:15.609Z,29.20
2018-09-04T09:56:19.203Z,29.85
2018-09-04T09:57:23.065Z,31.00
2018-09-04T09:58:26.706Z,33.13
2018-09-04T09:59:30.427Z,30.88
2018-09-04T10:00:38.360Z,32.90
2018-09-04T10:01:47.339Z,35.65
2018-09-04T10:02:56.003Z,30.50
2018-09-04T10:04:03.102Z,29.52
2018-09-04T10:05:06.635Z,30.48
2018-09-04T10:06:10.241Z,28.05
2018-09-04T10:07:13.848Z,31.02
2018-09-04T10:08:17.593Z,29.07
2018-09-04T10:09:21.436Z,33.15
2018-09-04T10:10:25.161Z,33.18
2018-09-04T10:11:28.841Z,31.48
2018-09-04T10:12:32.657Z,31.68
2018-09-04T10:13:36.487Z,34.20
2018-09-04T10:14:40.143Z,34.18
2018-09-04T10:15:44.075Z,33.70
2018-09-04T10:16:47.742Z,36.10
2018-09-04T10:17:51.369Z,30.40
2018-09-04T10:18:54.946Z,31.60
2018-09-04T10:19:58.675Z,30.82
2018-09-04T10:21:02.696Z,27.73
2018-09-04T10:22:06.336Z,27.22
2018-09-04T10:23:10.103Z,27.42
2018-09-04T10:24:13.679Z,28.35
2018-09-04T10:25:17.254Z,26.12
2018-09-04T10:26:20.911Z,24.45
2018-09-04T10:27:24.942Z,28.80
2018-09-04T10:28:28.513Z,29.32
2018-09-04T10:29:32.800Z,24.30
2018-09-04T10:30:36.362Z,28.27
2018-09-04T10:31:39.934Z,27.22
2018-09-04T10:32:46.975Z,27.40
2018-09-04T10:33:50.643Z,25.45
2018-09-04T10:35:05.974Z,26.93
2018-09-04T10:36:11.646Z,28.70
2018-09-04T10:37:15.408Z,25.48
2018-09-04T10:38:19.008Z,27.65
2018-09-04T10:39:28.376Z,28.15
2018-09-04T10:40:39.077Z,27.42
2018-09-04T10:41:42.622Z,25.43
2018-09-04T10:42:46.125Z,27.77
2018-09-04T10:43:49.859Z,25.65
2018-09-04T10:44:53.343Z,27.65
2018-09-04T10:46:16.791Z,27.45
2018-09-04T10:47:20.485Z,25.60
2018-09-04T10:48:25.833Z,27.17
2018-09-04T10:49:29.338Z,27.22
2018-09-04T10:50:33.026Z,29.35
2018-09-04T10:51:36.514Z,27.70
2018-09-04T10:52:40.054Z,26.17
2018-09-04T10:53:44.057Z,26.73
2018-09-04T10:54:47.674Z,26.10
2018-09-04T10:55:51.266Z,26.35
2018-09-04T10:56:54.869Z,26.93
2018-09-04T10:57:58.374Z,25.40
2018-09-04T10:59:01.999Z,26.30
2018-09-04T11:00:05.627Z,26.93
2018-09-04T11:01:09.915Z,24.63
2018-09-04T11:02:16.318Z,24.85
2018-09-04T11:03:19.866Z,23.90
2018-09-04T11:04:24.112Z,25.08
2018-09-04T11:05:28.067Z,23.73
2018-09-04T11:06:31.657Z,27.27
2018-09-04T11:07:35.194Z,24.00
2018-09-04T11:08:38.740Z,27.73
2018-09-04T11:09:42.387Z,26.37
2018-09-04T11:10:45.932Z,29.92
2018-09-04T11:11:49.578Z,28.20
2018-09-04T11:12:53.874Z,27.20
2018-09-04T11:13:57.948Z,32.17
2018-09-04T11:15:01.981Z,25.65
2018-09-04T11:16:05.544Z,23.15
2018-09-04T11:17:09.438Z,22.93
2018-09-04T11:18:13.749Z,24.98
2018-09-04T11:19:17.519Z,26.12
2018-09-04T11:20:21.746Z,26.60
2018-09-04T11:21:25.521Z,24.75
2018-09-04T11:22:29.283Z,22.93
2018-09-04T11:23:32.930Z,27.82
2018-09-04T11:24:37.062Z,24.70
2018-09-04T11:25:41.324Z,32.25
2018-09-04T11:26:45.020Z,34.95
2018-09-04T11:27:49.303Z,31.95
2018-09-04T11:28:55.791Z,28.10
2018-09-04T11:29:59.425Z,31.07
2018-09-04T11:31:03.155Z,29.87
2018-09-04T11:32:08.084Z,30.57
2018-09-04T11:33:11.797Z,30.15
2018-09-04T11:34:15.891Z,31.82
2018-09-04T11:35:20.273Z,32.95
2018-09-04T11:36:23.941Z,32.00
2018-09-04T11:37:27.579Z,31.93
2018-09-04T11:38:31.187Z,26.70
2018-09-04T11:39:36.050Z,32.03
2018-09-04T11:40:39.789Z,32.58
2018-09-04T11:41:43.360Z,28.12
2018-09-04T11:42:46.997Z,27.73
2018-09-04T11:43:50.791Z,28.77
2018-09-04T11:44:54.393Z,29.92
2018-09-04T11:45:58.889Z,28.45
2018-09-04T11:47:03.748Z,25.60
2018-09-04T11:48:08.276Z,26.12
2018-09-04T11:49:11.944Z,24.75
2018-09-04T11:50:16.373Z,29.40
2018-09-04T11:51:26.704Z,26.23
2018-09-04T11:52:30.518Z,28.45
2018-09-04T11:53:34.076Z,27.05
2018-09-04T11:54:37.721Z,28.85
2018-09-04T11:55:41.357Z,25.95
2018-09-04T11:56:45.040Z,29.35
2018-09-04T11:57:49.215Z,24.75
2018-09-04T11:58:53.806Z,30.50
2018-09-04T11:59:57.591Z,26.57
2018-09-04T12:01:02.845Z,23.12
2018-09-04T12:02:09.047Z,23.85
2018-09-04T12:03:14.755Z,25.80
2018-09-04T12:04:19.755Z,23.00
2018-09-04T12:05:23.391Z,23.77
2018-09-04T12:06:27.101Z,22.35
2018-09-04T12:07:30.935Z,21.73
2018-09-04T12:08:34.900Z,24.45
2018-09-04T12:09:39.309Z,26.15
2018-09-04T12:10:44.255Z,22.58
2018-09-04T12:11:53.886Z,21.55
2018-09-04T12:12:57.508Z,24.80
2018-09-04T12:14:01.837Z,26.73
2018-09-04T12:15:05.782Z,20.82
2018-09-04T12:16:09.414Z,23.65
2018-09-04T12:17:13.059Z,19.80
2018-09-04T12:18:17.551Z,21.97
2018-09-04T12:19:21.188Z,21.00
2018-09-04T12:20:53.288Z,20.10
2018-09-04T12:21:56.694Z,21.42
2018-09-04T12:23:01.022Z,17.07
2018-09-04T12:24:05.501Z,18.50
2018-09-04T12:25:09.740Z,19.40
2018-09-04T12:26:14.274Z,22.60
2018-09-04T12:27:18.217Z,21.75
2018-09-04T12:28:21.734Z,22.90
2018-09-04T12:29:25.895Z,22.20
2018-09-04T12:30:29.599Z,22.22
2018-09-04T12:31:33.177Z,20.12
2018-09-04T12:32:37.478Z,18.82
2018-09-04T12:33:41.118Z,19.25
2018-09-04T12:34:44.709Z,18.52
2018-09-04T12:35:49.297Z,17.95
2018-09-04T12:36:53.731Z,19.42
2018-09-04T12:37:57.566Z,20.75
2018-09-04T12:39:01.984Z,21.52
2018-09-04T12:40:05.936Z,21.55
2018-09-04T12:41:15.152Z,19.73
2018-09-04T12:42:19.348Z,20.20
2018-09-04T12:43:23.458Z,16.40
2018-09-04T12:44:27.775Z,19.40
2018-09-04T12:45:49.737Z,18.70
2018-09-04T12:46:53.355Z,20.32
2018-09-04T12:47:57.162Z,18.82
2018-09-04T12:49:00.823Z,20.95
2018-09-04T12:50:04.546Z,25.25
2018-09-04T12:51:08.226Z,21.95
2018-09-04T12:52:12.054Z,23.40
2018-09-04T12:53:16.286Z,23.32
2018-09-04T12:54:19.918Z,25.17
2018-09-04T12:55:23.809Z,23.55
2018-09-04T12:56:27.490Z,18.82
2018-09-04T12:57:31.505Z,17.50
2018-09-04T12:58:35.922Z,20.55
2018-09-04T12:59:39.568Z,18.77
2018-09-04T13:00:46.545Z,18.98
2018-09-04T13:01:50.644Z,17.45
2018-09-04T13:02:55.075Z,17.32
2018-09-04T13:03:58.702Z,16.57
2018-09-04T13:05:02.426Z,17.40
2018-09-04T13:06:06.653Z,18.82
2018-09-04T13:07:11.809Z,19.35
2018-09-04T13:08:16.576Z,21.05
2018-09-04T13:09:21.157Z,21.35
2018-09-04T13:10:25.045Z,23.52
2018-09-04T13:11:28.732Z,22.07
2018-09-04T13:12:32.427Z,23.47
2018-09-04T13:13:36.785Z,20.55
2018-09-04T13:14:40.885Z,20.17
2018-09-04T13:15:47.524Z,22.98
2018-09-04T13:16:51.247Z,18.82
2018-09-04T13:17:54.971Z,18.65
2018-09-04T13:18:58.726Z,20.00
2018-09-04T13:20:03.799Z,18.87
2018-09-04T13:21:07.535Z,18.02
2018-09-04T13:22:11.940Z,17.87
2018-09-04T13:23:16.145Z,18.27
2018-09-04T13:24:19.693Z,18.15
2018-09-04T13:25:23.362Z,17.87
2018-09-04T13:26:27.011Z,18.98
2018-09-04T13:27:31.533Z,16.87
2018-09-04T13:28:37.590Z,18.48
2018-09-04T13:29:42.124Z,18.65
2018-09-04T13:30:46.818Z,20.30
2018-09-04T13:31:52.168Z,18.98
2018-09-04T13:32:55.767Z,20.35
2018-09-04T13:34:00.397Z,17.40
2018-09-04T13:35:04.967Z,17.55
2018-09-04T13:36:08.838Z,17.77
2018-09-04T13:37:13.673Z,17.98
2018-09-04T13:38:18.362Z,19.05
2018-09-04T13:39:22.186Z,19.67
2018-09-04T13:40:25.835Z,20.90
2018-09-04T13:41:33.234Z,17.07
2018-09-04T13:42:36.911Z,19.65
2018-09-04T13:43:42.752Z,19.62
2018-09-04T13:44:48.536Z,19.30
2018-09-04T13:45:53.464Z,19.65
2018-09-04T13:46:58.193Z,17.92
2018-09-04T13:48:02.129Z,18.70
2018-09-04T13:49:06.777Z,15.80